SBAN

Details ICAO SBAN
Name BASE AEREA
Region Brazil
Timezone America/Sao_Paulo (UTC-3.0)
Plans Departing 17
Arriving 13
Stats Elevation 3,728 ft / 1,136 m (AMSL)
Location -16.229153° -48.964267°
Runways 2
Magnetic Variation 21.164° W
Sunrise 2018-05-24 09:35:46 UTC / 2018-05-24 06:35:46 Local
Sunset 2018-05-24 20:52:31 UTC / 2018-05-24 17:52:31 Local
Advertisement - Login to hide

Runways

ID Width Length Bearing (true) Bearing (mag) Surface Threshold Offset Overrun Length
06L 148 ft / 45 m 10,862 ft / 3,311 m 38.85° 60.01° Asphalt 0 ft / 0 m 1,151 ft / 351 m
06R 75 ft / 23 m 7,469 ft / 2,277 m 38.80° 59.96° Asphalt 0 ft / 0 m 0 ft / 0 m
24L 75 ft / 23 m 7,469 ft / 2,277 m 218.79° 239.95° Asphalt 0 ft / 0 m 0 ft / 0 m
24R 148 ft / 45 m 10,862 ft / 3,311 m 218.84° 240.00° Asphalt 0 ft / 0 m 1,142 ft / 348 m

Map

Weather


0- 5 10 15 20 25 30 35+ Temperature / ° C

Clouds and Precipitation
Forecast for 2018-05-24 12:00 UTC. Updated 3 hours ago

Ground ~20,000 ft ~40,000 ft Winds

METAR

SBAN 241400Z 11009KT 9999 FEW030 24/14 Q1026

TAF

TAF TAF SBAN 241000Z 2412/2424 10008KT CAVOK TX28/2417Z TN20/2423Z BECMG 2415/2417 12005KT 9999 FEW040 BECMG 2422/2423 CAVOK RMK PEJ

Frequencies

Ground 121.90 MHz GND
Tower 118.30 MHz TWR
Approach 129.45 MHz APP
Approach 120.55 MHz APP
Tower 121.25 MHz TWR
Approach 133.00 MHz APP
Approach 119.15 MHz APP
Warning: Do not use this data for real-world aviation or navigation. No guarantee of current accuracy is given.